createdAt,value
2023-01-29T00:02:01.470Z,-2.70
2023-01-29T00:04:30.996Z,-2.70
2023-01-29T00:06:58.837Z,-2.70
2023-01-29T00:09:26.959Z,-2.70
2023-01-29T00:11:54.988Z,-2.70
2023-01-29T00:14:23.003Z,-2.80
2023-01-29T00:16:51.043Z,-2.80
2023-01-29T00:19:19.524Z,-2.80
2023-01-29T00:21:48.936Z,-2.80
2023-01-29T00:24:16.800Z,-2.80
2023-01-29T00:26:44.927Z,-2.80
2023-01-29T00:29:12.998Z,-2.80
2023-01-29T00:31:41.067Z,-2.80
2023-01-29T00:34:09.160Z,-2.80
2023-01-29T00:36:37.185Z,-2.80
2023-01-29T00:39:10.889Z,-2.80
2023-01-29T00:41:56.966Z,-2.90
2023-01-29T00:44:42.717Z,-2.90
2023-01-29T00:47:30.988Z,-2.80
2023-01-29T00:49:59.144Z,-2.90
2023-01-29T00:52:27.601Z,-2.90
2023-01-29T00:54:58.500Z,-2.90
2023-01-29T00:57:28.185Z,-2.90
2023-01-29T00:59:56.479Z,-3.00
2023-01-29T01:02:42.759Z,-2.90
2023-01-29T01:05:14.149Z,-3.00
2023-01-29T01:07:42.305Z,-3.00
2023-01-29T01:10:20.912Z,-3.00
2023-01-29T01:12:50.688Z,-3.00
2023-01-29T01:15:19.609Z,-3.00
2023-01-29T01:17:48.838Z,-3.10
2023-01-29T01:20:17.154Z,-3.10
2023-01-29T01:22:45.440Z,-3.10
2023-01-29T01:25:15.341Z,-3.10
2023-01-29T01:27:43.344Z,-3.10
2023-01-29T01:30:13.906Z,-3.10
2023-01-29T01:32:42.832Z,-3.10
2023-01-29T01:35:13.173Z,-3.10
2023-01-29T01:37:41.686Z,-3.10
2023-01-29T01:40:18.300Z,-3.10
2023-01-29T01:42:49.406Z,-3.10
2023-01-29T01:45:22.927Z,-3.10
2023-01-29T01:47:55.064Z,-3.10
2023-01-29T01:50:27.884Z,-3.10
2023-01-29T01:53:02.871Z,-3.10
2023-01-29T01:55:34.945Z,-3.10
2023-01-29T01:58:09.961Z,-3.20
2023-01-29T02:00:38.146Z,-3.10
2023-01-29T02:03:24.706Z,-3.20
2023-01-29T02:06:12.290Z,-3.20
2023-01-29T02:09:05.237Z,-3.20
2023-01-29T02:11:34.806Z,-3.20
2023-01-29T02:14:03.540Z,-3.30
2023-01-29T02:16:31.817Z,-3.30
2023-01-29T02:18:59.959Z,-3.30
2023-01-29T02:21:51.507Z,-3.30
2023-01-29T02:24:48.693Z,-3.30
2023-01-29T02:27:22.164Z,-3.30
2023-01-29T02:30:02.401Z,-3.30
2023-01-29T02:32:37.814Z,-3.30
2023-01-29T02:35:28.587Z,-3.30
2023-01-29T02:38:08.296Z,-3.30
2023-01-29T02:40:41.987Z,-3.30
2023-01-29T02:43:24.397Z,-3.30
2023-01-29T02:46:01.667Z,-3.30
2023-01-29T02:48:41.653Z,-3.40
2023-01-29T02:51:15.202Z,-3.40
2023-01-29T02:53:52.786Z,-3.40
2023-01-29T02:56:25.220Z,-3.40
2023-01-29T02:59:00.213Z,-3.40
2023-01-29T03:01:32.973Z,-3.40
2023-01-29T03:04:07.161Z,-3.40
2023-01-29T03:06:39.382Z,-3.40
2023-01-29T03:09:16.415Z,-3.50
2023-01-29T03:11:50.528Z,-3.50
2023-01-29T03:14:24.295Z,-3.50
2023-01-29T03:16:54.900Z,-3.50
2023-01-29T03:19:29.657Z,-3.60
2023-01-29T03:22:04.165Z,-3.60
2023-01-29T03:24:56.372Z,-3.60
2023-01-29T03:27:46.542Z,-3.70
2023-01-29T03:30:36.047Z,-3.70
2023-01-29T03:33:10.147Z,-3.70
2023-01-29T03:35:41.621Z,-3.70
2023-01-29T03:38:12.398Z,-3.70
2023-01-29T03:40:46.927Z,-3.60
2023-01-29T03:43:26.053Z,-3.70
2023-01-29T03:46:02.689Z,-3.60
2023-01-29T03:48:37.914Z,-3.60
2023-01-29T03:51:17.106Z,-3.60
2023-01-29T03:53:50.805Z,-3.60
2023-01-29T03:56:31.967Z,-3.70
2023-01-29T03:59:03.517Z,-3.70
2023-01-29T04:01:37.133Z,-3.70
2023-01-29T04:04:12.954Z,-3.70
2023-01-29T04:06:44.988Z,-3.70
2023-01-29T04:09:17.310Z,-3.80
2023-01-29T04:11:51.850Z,-3.70
2023-01-29T04:14:19.954Z,-3.80
2023-01-29T04:16:53.268Z,-3.80
2023-01-29T04:19:23.758Z,-3.80
2023-01-29T04:22:02.331Z,-3.80
2023-01-29T04:24:30.620Z,-3.80
2023-01-29T04:27:07.960Z,-3.80
2023-01-29T04:29:42.957Z,-3.80
2023-01-29T04:32:19.432Z,-3.80
2023-01-29T04:35:00.896Z,-3.80
2023-01-29T04:37:37.437Z,-3.80
2023-01-29T04:40:15.837Z,-3.80
2023-01-29T04:42:51.303Z,-3.80
2023-01-29T04:45:28.972Z,-3.80
2023-01-29T04:48:05.505Z,-3.90
2023-01-29T04:50:39.377Z,-3.80
2023-01-29T04:53:16.069Z,-3.90
2023-01-29T04:55:48.498Z,-3.90
2023-01-29T04:58:23.920Z,-3.90
2023-01-29T05:00:55.615Z,-3.90
2023-01-29T05:03:26.787Z,-3.90
2023-01-29T05:05:58.248Z,-3.90
2023-01-29T05:08:28.273Z,-3.90
2023-01-29T05:10:58.635Z,-3.90
2023-01-29T05:13:29.913Z,-3.90
2023-01-29T05:16:01.766Z,-3.90
2023-01-29T05:18:30.876Z,-3.80
2023-01-29T05:21:04.137Z,-3.90
2023-01-29T05:23:32.270Z,-3.90
2023-01-29T05:26:00.422Z,-3.90
2023-01-29T05:28:27.522Z,-3.90
2023-01-29T05:30:57.578Z,-3.90
2023-01-29T05:33:27.849Z,-3.90
2023-01-29T05:35:56.424Z,-3.90
2023-01-29T05:38:25.875Z,-4.00
2023-01-29T05:40:54.003Z,-3.90
2023-01-29T05:43:24.048Z,-3.90
2023-01-29T05:45:56.105Z,-4.00
2023-01-29T05:48:25.328Z,-4.00
2023-01-29T05:50:53.572Z,-4.00
2023-01-29T05:53:21.683Z,-4.00
2023-01-29T05:55:51.025Z,-4.00
2023-01-29T05:58:19.745Z,-4.00
2023-01-29T06:00:47.796Z,-4.00
2023-01-29T06:03:16.015Z,-4.10
2023-01-29T06:05:44.045Z,-4.00
2023-01-29T06:08:12.080Z,-4.10
2023-01-29T06:10:40.134Z,-4.10
2023-01-29T06:13:09.517Z,-4.10
2023-01-29T06:15:39.920Z,-4.10
2023-01-29T06:18:08.287Z,-4.10
2023-01-29T06:20:36.397Z,-4.10
2023-01-29T06:23:04.433Z,-4.10
2023-01-29T06:25:32.737Z,-4.10
2023-01-29T06:28:00.795Z,-4.10
2023-01-29T06:30:31.689Z,-4.10
2023-01-29T06:33:01.599Z,-4.10
2023-01-29T06:35:29.765Z,-4.10
2023-01-29T06:37:58.039Z,-4.10
2023-01-29T06:40:26.114Z,-4.10
2023-01-29T06:42:54.142Z,-4.10
2023-01-29T06:45:22.153Z,-4.10
2023-01-29T06:47:51.658Z,-4.10
2023-01-29T06:50:19.855Z,-4.10
2023-01-29T06:52:47.858Z,-4.20
2023-01-29T06:55:15.944Z,-4.20
2023-01-29T06:57:43.973Z,-4.20
2023-01-29T07:00:13.309Z,-4.20
2023-01-29T07:02:41.382Z,-4.20
2023-01-29T07:05:10.968Z,-4.20
2023-01-29T07:07:39.008Z,-4.10
2023-01-29T07:10:08.299Z,-4.20
2023-01-29T07:12:36.392Z,-4.20
2023-01-29T07:15:04.804Z,-4.10
2023-01-29T07:17:32.800Z,-4.10
2023-01-29T07:20:00.844Z,-4.10
2023-01-29T07:22:30.242Z,-4.00
2023-01-29T07:24:58.134Z,-4.00
2023-01-29T07:27:26.820Z,-4.00
2023-01-29T07:29:55.217Z,-4.00
2023-01-29T07:32:23.462Z,-4.00
2023-01-29T07:34:51.554Z,-3.90
2023-01-29T07:37:19.561Z,-3.90
2023-01-29T07:39:48.931Z,-3.80
2023-01-29T07:42:16.765Z,-3.70
2023-01-29T07:44:44.794Z,-3.70
2023-01-29T07:47:14.205Z,-3.70
2023-01-29T07:49:43.186Z,-3.60
2023-01-29T07:52:11.234Z,-3.50
2023-01-29T07:54:39.295Z,-3.50
2023-01-29T07:57:08.694Z,-3.40
2023-01-29T07:59:36.518Z,-3.30
2023-01-29T08:02:04.541Z,-3.20
2023-01-29T08:04:32.572Z,-3.20
2023-01-29T08:07:00.654Z,-3.10
2023-01-29T08:09:28.693Z,-3.00
2023-01-29T08:11:56.775Z,-2.90
2023-01-29T08:14:26.165Z,-2.80
2023-01-29T08:16:54.004Z,-2.70
2023-01-29T08:19:21.958Z,-2.60
2023-01-29T08:21:50.089Z,-2.60
2023-01-29T08:24:18.293Z,-2.50
2023-01-29T08:26:46.326Z,-2.40
2023-01-29T08:29:14.768Z,-2.30
2023-01-29T08:31:44.169Z,-2.30
2023-01-29T08:34:12.014Z,-2.20
2023-01-29T08:36:40.053Z,-2.10
2023-01-29T08:39:08.204Z,-2.10
2023-01-29T08:41:36.257Z,-2.00
2023-01-29T08:44:05.587Z,-1.90
2023-01-29T08:46:33.828Z,-1.90
2023-01-29T08:49:03.816Z,-1.80
2023-01-29T08:51:31.834Z,-1.70
2023-01-29T08:54:00.171Z,-1.70
2023-01-29T08:56:28.194Z,-1.60
2023-01-29T08:58:57.315Z,-1.50
2023-01-29T09:01:26.287Z,-1.40
2023-01-29T09:03:54.332Z,-1.40
2023-01-29T09:06:23.696Z,-1.30
2023-01-29T09:08:51.719Z,-1.30
2023-01-29T09:11:19.728Z,-1.20
2023-01-29T09:13:47.730Z,-1.20
2023-01-29T09:16:15.793Z,-1.10
2023-01-29T09:18:43.975Z,-1.10
2023-01-29T09:21:12.025Z,-1.10
2023-01-29T09:23:41.448Z,-1.00
2023-01-29T09:26:09.747Z,-0.90
2023-01-29T09:28:37.820Z,-0.80
2023-01-29T09:31:06.230Z,-0.80
2023-01-29T09:33:34.356Z,-0.70
2023-01-29T09:36:04.371Z,-0.60
2023-01-29T09:38:32.417Z,-0.50
2023-01-29T09:41:14.757Z,-0.50
2023-01-29T09:43:48.235Z,-0.40
2023-01-29T09:46:22.122Z,-0.30
2023-01-29T09:48:57.475Z,-0.30
2023-01-29T09:51:29.419Z,-0.30
2023-01-29T09:54:08.189Z,-0.30
2023-01-29T09:56:37.543Z,-0.40
2023-01-29T09:59:05.734Z,-0.40
2023-01-29T10:01:40.932Z,-0.50
2023-01-29T10:04:28.004Z,-0.50
2023-01-29T10:07:10.758Z,-0.60
2023-01-29T10:10:04.429Z,-0.70
2023-01-29T10:12:49.479Z,-0.80
2023-01-29T10:15:29.745Z,-0.70
2023-01-29T10:18:14.301Z,-0.70
2023-01-29T10:20:53.833Z,-0.70
2023-01-29T10:23:25.103Z,-0.70
2023-01-29T10:25:54.415Z,-0.60
2023-01-29T10:28:30.490Z,-0.50
2023-01-29T10:31:03.413Z,-0.50
2023-01-29T10:33:49.540Z,-0.40
2023-01-29T10:36:29.694Z,-0.30
2023-01-29T10:38:57.828Z,-0.30
2023-01-29T10:41:39.679Z,-0.30
2023-01-29T10:44:21.979Z,-0.30
2023-01-29T10:47:07.372Z,-0.20
2023-01-29T10:49:50.290Z,-0.20
2023-01-29T10:52:28.448Z,-0.10
2023-01-29T10:55:07.648Z,0.00
2023-01-29T10:57:57.275Z,-0.10
2023-01-29T11:00:30.452Z,0.00
2023-01-29T11:02:58.522Z,0.10
2023-01-29T11:05:34.231Z,0.30
2023-01-29T11:08:06.584Z,0.60
2023-01-29T11:10:40.622Z,0.90
2023-01-29T11:13:15.534Z,1.70
2023-01-29T11:15:45.228Z,2.80
2023-01-29T11:18:15.660Z,3.60
2023-01-29T11:20:44.957Z,3.80
2023-01-29T11:23:27.917Z,3.60
2023-01-29T11:25:57.889Z,3.30
2023-01-29T11:28:40.167Z,3.20
2023-01-29T11:31:21.803Z,3.10
2023-01-29T11:33:51.708Z,3.00
2023-01-29T11:36:30.910Z,2.80
2023-01-29T11:39:20.720Z,2.80
2023-01-29T11:41:51.688Z,2.80
2023-01-29T11:44:27.796Z,2.80
2023-01-29T11:46:58.580Z,2.70
2023-01-29T11:49:34.093Z,2.60
2023-01-29T11:52:04.780Z,2.30
2023-01-29T11:54:36.685Z,2.20
2023-01-29T11:57:05.809Z,2.10
2023-01-29T11:59:44.327Z,2.10
2023-01-29T12:02:23.707Z,2.00
2023-01-29T12:04:52.317Z,2.00
2023-01-29T12:07:20.605Z,2.00
2023-01-29T12:09:55.477Z,1.90
2023-01-29T12:12:39.360Z,1.80
2023-01-29T12:15:18.463Z,1.80
2023-01-29T12:18:02.284Z,1.80
2023-01-29T12:20:36.284Z,1.80
2023-01-29T12:23:21.469Z,1.60
2023-01-29T12:25:57.348Z,1.60
2023-01-29T12:28:43.161Z,1.50
2023-01-29T12:31:28.857Z,1.50
2023-01-29T12:34:06.329Z,1.40
2023-01-29T12:36:39.418Z,1.40
2023-01-29T12:39:07.568Z,1.40
2023-01-29T12:41:45.963Z,1.40
2023-01-29T12:44:18.003Z,1.40
2023-01-29T12:46:52.805Z,1.50
2023-01-29T12:49:27.059Z,1.60
2023-01-29T12:52:00.379Z,1.70
2023-01-29T12:54:36.101Z,1.90
2023-01-29T12:57:09.094Z,2.00
2023-01-29T12:59:43.988Z,2.00
2023-01-29T13:02:22.845Z,2.20
2023-01-29T13:04:58.823Z,2.10
2023-01-29T13:07:31.681Z,2.20
2023-01-29T13:10:06.127Z,2.20
2023-01-29T13:12:35.173Z,2.10
2023-01-29T13:15:07.832Z,2.20
2023-01-29T13:17:38.783Z,2.10
2023-01-29T13:20:14.333Z,2.10
2023-01-29T13:22:45.034Z,2.10
2023-01-29T13:25:17.546Z,2.20
2023-01-29T13:27:47.772Z,2.10
2023-01-29T13:30:27.341Z,2.40
2023-01-29T13:32:56.144Z,2.60
2023-01-29T13:35:25.625Z,2.80
2023-01-29T13:37:55.714Z,2.70
2023-01-29T13:40:27.435Z,2.70
2023-01-29T13:42:59.880Z,2.50
2023-01-29T13:45:35.584Z,2.30
2023-01-29T13:48:12.111Z,2.00
2023-01-29T13:50:43.926Z,1.80
2023-01-29T13:53:22.734Z,1.60
2023-01-29T13:55:50.781Z,1.50
2023-01-29T13:58:40.727Z,1.60
2023-01-29T14:01:08.834Z,1.70
2023-01-29T14:04:04.284Z,1.70
2023-01-29T14:06:52.054Z,1.60
2023-01-29T14:10:03.293Z,1.60
2023-01-29T14:12:47.390Z,1.50
2023-01-29T14:15:30.680Z,1.50
2023-01-29T14:18:06.190Z,1.30
2023-01-29T14:20:45.873Z,1.20
2023-01-29T14:23:36.727Z,1.10
2023-01-29T14:26:07.128Z,1.00
2023-01-29T14:28:36.327Z,0.90
2023-01-29T14:31:05.314Z,0.90
2023-01-29T14:33:36.952Z,0.80
2023-01-29T14:36:08.086Z,0.70
2023-01-29T14:38:38.532Z,0.70
2023-01-29T14:41:15.849Z,0.60
2023-01-29T14:43:43.880Z,0.40
2023-01-29T14:46:43.539Z,0.30
2023-01-29T14:49:11.734Z,0.10
2023-01-29T14:51:45.002Z,0.00
2023-01-29T14:54:26.331Z,-0.10
2023-01-29T14:57:00.418Z,-0.20
2023-01-29T14:59:34.578Z,-0.40
2023-01-29T15:02:06.371Z,-0.40
2023-01-29T15:04:42.148Z,-0.50
2023-01-29T15:07:20.846Z,-0.60
2023-01-29T15:10:03.932Z,-0.70
2023-01-29T15:12:49.172Z,-0.80
2023-01-29T15:15:21.661Z,-0.90
2023-01-29T15:17:56.826Z,-1.00
2023-01-29T15:20:30.226Z,-1.00
2023-01-29T15:22:58.570Z,-1.10
2023-01-29T15:25:29.108Z,-1.10
2023-01-29T15:27:59.449Z,-1.20
2023-01-29T15:30:34.042Z,-1.30
2023-01-29T15:33:03.801Z,-1.40
2023-01-29T15:35:36.905Z,-1.50
2023-01-29T15:38:07.143Z,-1.50
2023-01-29T15:40:36.484Z,-1.60
2023-01-29T15:43:21.140Z,-1.60
2023-01-29T15:45:50.309Z,-1.70
2023-01-29T15:48:22.662Z,-1.80
2023-01-29T15:50:54.237Z,-1.80
2023-01-29T15:53:28.080Z,-1.90
2023-01-29T15:55:59.928Z,-2.00
2023-01-29T15:58:31.875Z,-2.10
2023-01-29T16:01:01.637Z,-2.20
2023-01-29T16:03:33.533Z,-2.20
2023-01-29T16:06:02.841Z,-2.30
2023-01-29T16:08:31.162Z,-2.40
2023-01-29T16:11:02.579Z,-2.50
2023-01-29T16:13:32.739Z,-2.50
2023-01-29T16:16:02.194Z,-2.70
2023-01-29T16:18:31.268Z,-2.70
2023-01-29T16:21:01.122Z,-2.80
2023-01-29T16:23:33.318Z,-2.90
2023-01-29T16:26:07.837Z,-3.00
2023-01-29T16:28:42.024Z,-3.00
2023-01-29T16:31:13.956Z,-3.10
2023-01-29T16:33:45.328Z,-3.20
2023-01-29T16:36:18.500Z,-3.20
2023-01-29T16:38:50.196Z,-3.30
2023-01-29T16:41:31.193Z,-3.30
2023-01-29T16:44:01.514Z,-3.40
2023-01-29T16:46:45.791Z,-3.40
2023-01-29T16:49:45.048Z,-3.50
2023-01-29T16:52:20.233Z,-3.50
2023-01-29T16:54:48.644Z,-3.60
2023-01-29T16:57:22.401Z,-3.60
2023-01-29T16:59:54.015Z,-3.60
2023-01-29T17:02:27.482Z,-3.70
2023-01-29T17:05:01.477Z,-3.70
2023-01-29T17:07:30.663Z,-3.70
2023-01-29T17:10:01.827Z,-3.70
2023-01-29T17:12:32.325Z,-3.80
2023-01-29T17:15:01.989Z,-3.80
2023-01-29T17:17:31.622Z,-3.90
2023-01-29T17:20:03.775Z,-3.90
2023-01-29T17:22:32.022Z,-3.90
2023-01-29T17:25:00.198Z,-3.90
2023-01-29T17:27:28.517Z,-4.00
2023-01-29T17:29:58.017Z,-4.00
2023-01-29T17:32:44.273Z,-4.00
2023-01-29T17:35:15.128Z,-4.00
2023-01-29T17:37:44.292Z,-4.10
2023-01-29T17:40:29.436Z,-4.20
2023-01-29T17:42:57.477Z,-4.20
2023-01-29T17:45:26.980Z,-4.30
2023-01-29T17:47:54.812Z,-4.30
2023-01-29T17:50:26.378Z,-4.40
2023-01-29T17:52:54.412Z,-4.40
2023-01-29T17:55:22.880Z,-4.50
2023-01-29T17:57:50.880Z,-4.60
2023-01-29T18:00:21.728Z,-4.60
2023-01-29T18:02:51.658Z,-4.60
2023-01-29T18:05:20.314Z,-4.70
2023-01-29T18:07:51.541Z,-4.70
2023-01-29T18:10:21.895Z,-4.80
2023-01-29T18:12:49.955Z,-4.90
2023-01-29T18:15:18.431Z,-5.00
2023-01-29T18:17:47.138Z,-5.00
2023-01-29T18:20:21.746Z,-5.00
2023-01-29T18:22:50.013Z,-5.00
2023-01-29T18:25:18.554Z,-5.00
2023-01-29T18:27:47.559Z,-5.00
2023-01-29T18:30:16.597Z,-5.10
2023-01-29T18:32:44.591Z,-5.10
2023-01-29T18:35:12.695Z,-5.10
2023-01-29T18:37:42.108Z,-5.10
2023-01-29T18:40:13.191Z,-5.20
2023-01-29T18:42:41.569Z,-5.20
2023-01-29T18:45:10.383Z,-5.30
2023-01-29T18:47:38.519Z,-5.40
2023-01-29T18:50:07.444Z,-5.40
2023-01-29T18:52:35.522Z,-5.40
2023-01-29T18:55:05.213Z,-5.40
2023-01-29T18:58:25.290Z,-5.40
2023-01-29T19:00:21.870Z,-5.50
2023-01-29T19:02:50.740Z,-5.50
2023-01-29T19:05:22.691Z,-5.60
2023-01-29T19:07:52.123Z,-5.60
2023-01-29T19:10:21.347Z,-5.70
2023-01-29T19:12:49.383Z,-5.70
2023-01-29T19:15:20.518Z,-5.80
2023-01-29T19:17:48.585Z,-5.80
2023-01-29T19:20:17.040Z,-5.90
2023-01-29T19:22:45.090Z,-5.90
2023-01-29T19:25:13.675Z,-6.00
2023-01-29T19:27:43.093Z,-6.00
2023-01-29T19:30:12.871Z,-6.10
2023-01-29T19:32:41.129Z,-6.10
2023-01-29T19:35:09.485Z,-6.20
2023-01-29T19:37:37.528Z,-6.20
2023-01-29T19:40:08.107Z,-6.30
2023-01-29T19:42:37.485Z,-6.30
2023-01-29T19:45:07.534Z,-6.40
2023-01-29T19:47:40.153Z,-6.40
2023-01-29T19:50:09.468Z,-6.50
2023-01-29T19:52:52.794Z,-6.50
2023-01-29T19:55:22.340Z,-6.60
2023-01-29T19:57:53.340Z,-6.50
2023-01-29T20:00:23.406Z,-6.40
2023-01-29T20:02:51.387Z,-6.40
2023-01-29T20:05:20.287Z,-6.30
2023-01-29T20:07:49.914Z,-6.30
2023-01-29T20:10:18.562Z,-6.40
2023-01-29T20:12:47.059Z,-6.50
2023-01-29T20:15:16.120Z,-6.60
2023-01-29T20:17:45.911Z,-6.60
2023-01-29T20:20:14.896Z,-6.70
2023-01-29T20:22:43.143Z,-6.80
2023-01-29T20:25:13.534Z,-6.90
2023-01-29T20:27:41.745Z,-6.90
2023-01-29T20:30:11.283Z,-6.90
2023-01-29T20:32:39.324Z,-7.00
2023-01-29T20:35:10.266Z,-7.00
2023-01-29T20:37:38.274Z,-7.00
2023-01-29T20:40:07.214Z,-7.10
2023-01-29T20:42:35.321Z,-7.10
2023-01-29T20:45:03.362Z,-7.20
2023-01-29T20:47:31.757Z,-7.20
2023-01-29T20:49:59.797Z,-7.20
2023-01-29T20:52:29.216Z,-7.20
2023-01-29T20:54:57.229Z,-7.30
2023-01-29T20:57:25.353Z,-7.30
2023-01-29T20:59:53.367Z,-7.20
2023-01-29T21:02:21.453Z,-7.30
2023-01-29T21:04:49.703Z,-7.30
2023-01-29T21:07:17.963Z,-7.30
2023-01-29T21:09:47.597Z,-7.30
2023-01-29T21:12:15.653Z,-7.30
2023-01-29T21:14:43.664Z,-7.40
2023-01-29T21:17:11.723Z,-7.40
2023-01-29T21:19:39.759Z,-7.40
2023-01-29T21:22:07.819Z,-7.50
2023-01-29T21:24:36.265Z,-7.50
2023-01-29T21:27:05.758Z,-7.60
2023-01-29T21:29:34.873Z,-7.60
2023-01-29T21:32:04.421Z,-7.60
2023-01-29T21:34:32.499Z,-7.60
2023-01-29T21:37:00.548Z,-7.70
2023-01-29T21:39:28.524Z,-7.70
2023-01-29T21:42:13.986Z,-7.70
2023-01-29T21:44:43.380Z,-7.80
2023-01-29T21:47:13.263Z,-7.80
2023-01-29T21:49:42.324Z,-7.80
2023-01-29T21:52:12.141Z,-7.80
2023-01-29T21:54:40.945Z,-7.80
2023-01-29T21:57:14.870Z,-7.80
2023-01-29T21:59:47.749Z,-7.90
2023-01-29T22:02:22.160Z,-7.90
2023-01-29T22:04:52.190Z,-7.90
2023-01-29T22:07:20.208Z,-7.90
2023-01-29T22:09:48.318Z,-8.00
2023-01-29T22:12:16.724Z,-8.00
2023-01-29T22:14:47.304Z,-8.10
2023-01-29T22:17:16.464Z,-8.10
2023-01-29T22:19:44.751Z,-8.20
2023-01-29T22:22:15.609Z,-8.20
2023-01-29T22:24:44.819Z,-8.20
2023-01-29T22:27:12.796Z,-8.20
2023-01-29T22:29:41.024Z,-8.30
2023-01-29T22:32:11.449Z,-8.30
2023-01-29T22:34:39.465Z,-8.30
2023-01-29T22:37:07.521Z,-8.30
2023-01-29T22:39:35.504Z,-8.30
2023-01-29T22:42:03.521Z,-8.40
2023-01-29T22:44:31.545Z,-8.40
2023-01-29T22:46:59.522Z,-8.30
2023-01-29T22:49:30.292Z,-8.40
2023-01-29T22:52:10.869Z,-8.40
2023-01-29T22:54:39.718Z,-8.40
2023-01-29T22:57:10.028Z,-8.40
2023-01-29T22:59:38.370Z,-8.40
2023-01-29T23:02:06.714Z,-8.40
2023-01-29T23:04:36.599Z,-8.50
2023-01-29T23:07:04.780Z,-8.50
2023-01-29T23:09:32.827Z,-8.40
2023-01-29T23:12:01.293Z,-8.40
2023-01-29T23:14:29.400Z,-8.40
2023-01-29T23:16:57.586Z,-8.40
2023-01-29T23:19:27.000Z,-8.40
2023-01-29T23:21:56.431Z,-8.30
2023-01-29T23:24:24.670Z,-8.30
2023-01-29T23:27:10.437Z,-8.30
2023-01-29T23:29:38.601Z,-8.30
2023-01-29T23:32:07.308Z,-8.40
2023-01-29T23:34:35.305Z,-8.40
2023-01-29T23:37:05.107Z,-8.40
2023-01-29T23:39:33.212Z,-8.50
2023-01-29T23:42:01.850Z,-8.50
2023-01-29T23:44:30.073Z,-8.50
2023-01-29T23:46:58.322Z,-8.50
2023-01-29T23:49:26.315Z,-8.50
2023-01-29T23:51:54.463Z,-8.60
2023-01-29T23:54:24.008Z,-8.70
2023-01-29T23:56:52.187Z,-8.70
2023-01-29T23:59:20.617Z,-8.70
